Time;durP1;ratioP1;P1;durP2;ratioP2;P2;SDS_P1;SDS_P2;PMS_P1;PMS_P2;Temp;Humidity;BMP_temperature;BMP_pressure;BME280_temperature;BME280_humidity;BME280_pressure;Samples;Min_cycle;Max_cycle;Signal;HPM_P1;HPM_P2
2021/01/20 00:01:19;;;;;;;3.00;2.70;;;6.60;99.90;;;;;;4965667;28;20248;-87
2021/01/20 00:03:52;;;;;;;3.30;2.53;;;6.60;99.90;;;;;;4952034;28;20221;-87
2021/01/20 00:06:22;;;;;;;2.77;2.43;;;6.50;99.90;;;;;;4969307;28;20211;-87
2021/01/20 00:08:53;;;;;;;2.90;2.47;;;6.40;99.90;;;;;;4948821;29;20210;-87
2021/01/20 00:11:25;;;;;;;5.37;2.67;;;6.40;99.90;;;;;;4965531;29;20204;-86
2021/01/20 00:13:56;;;;;;;4.17;2.60;;;6.40;99.90;;;;;;4953580;29;20268;-87
2021/01/20 00:16:32;;;;;;;3.70;2.60;;;6.30;99.90;;;;;;4964866;29;20328;-87
2021/01/20 00:19:07;;;;;;;3.47;2.30;;;6.20;99.90;;;;;;4957505;29;20207;-88
2021/01/20 00:21:39;;;;;;;3.27;2.40;;;6.10;99.90;;;;;;4961633;29;20215;-87
2021/01/20 00:24:11;;;;;;;3.77;2.60;;;6.00;99.90;;;;;;4951458;28;20215;-89
2021/01/20 00:26:41;;;;;;;4.17;2.23;;;5.90;99.90;;;;;;4971901;28;20251;-87
2021/01/20 00:29:12;;;;;;;2.93;2.30;;;5.90;99.90;;;;;;4967126;28;20293;-88
2021/01/20 00:31:45;;;;;;;4.97;2.90;;;5.80;99.90;;;;;;4962678;29;20201;-87
2021/01/20 00:34:16;;;;;;;4.53;3.10;;;5.70;99.90;;;;;;4951221;29;20190;-88
2021/01/20 00:36:49;;;;;;;3.33;2.70;;;5.60;99.90;;;;;;4961920;28;20204;-86
2021/01/20 00:39:23;;;;;;;3.30;2.70;;;5.50;99.90;;;;;;4969644;28;20251;-88
2021/01/20 00:41:54;;;;;;;4.70;3.10;;;5.50;99.90;;;;;;4964589;28;20199;-88
2021/01/20 00:44:27;;;;;;;3.53;2.63;;;5.40;99.90;;;;;;4951403;28;20238;-87
2021/01/20 00:47:00;;;;;;;3.90;2.43;;;5.30;99.90;;;;;;4969860;28;20189;-88
2021/01/20 00:49:33;;;;;;;3.80;2.93;;;5.20;99.90;;;;;;4967372;28;20191;-86
2021/01/20 00:52:06;;;;;;;5.40;2.70;;;5.10;99.90;;;;;;4969614;28;20195;-87
2021/01/20 00:54:37;;;;;;;3.97;2.80;;;5.00;99.90;;;;;;4973301;29;20251;-87
2021/01/20 00:57:11;;;;;;;3.93;2.63;;;4.90;99.90;;;;;;4969509;28;20235;-87
2021/01/20 00:59:45;;;;;;;4.00;3.60;;;4.90;99.90;;;;;;4965678;29;20235;-88
2021/01/20 01:02:15;;;;;;;5.53;3.47;;;4.80;99.90;;;;;;4973641;28;20203;-86
2021/01/20 01:04:48;;;;;;;3.67;3.00;;;4.80;99.90;;;;;;4969391;28;20222;-88
2021/01/20 01:07:19;;;;;;;3.50;2.63;;;4.70;99.90;;;;;;4969249;29;20319;-86
2021/01/20 01:09:55;;;;;;;3.23;2.80;;;4.70;99.90;;;;;;4948451;29;20239;-88
2021/01/20 01:12:28;;;;;;;7.07;4.63;;;4.60;99.90;;;;;;4971014;28;20199;-88
2021/01/20 01:15:02;;;;;;;6.57;5.50;;;4.50;99.90;;;;;;4965519;29;20215;-89
2021/01/20 01:17:34;;;;;;;12.37;7.60;;;4.40;99.90;;;;;;4968300;29;20207;-87
2021/01/20 01:20:08;;;;;;;7.73;6.70;;;4.40;99.90;;;;;;4962738;29;20235;-87
2021/01/20 01:22:42;;;;;;;8.27;7.13;;;4.30;99.90;;;;;;4943936;29;20276;-88
2021/01/20 01:25:24;;;;;;;9.90;7.73;;;4.30;99.90;;;;;;4957053;29;20211;-88
2021/01/20 01:28:01;;;;;;;13.87;11.27;;;4.20;99.90;;;;;;4962296;29;20646;-86
2021/01/20 01:30:39;;;;;;;10.13;8.07;;;4.10;99.90;;;;;;4953971;29;20199;-88
2021/01/20 01:33:10;;;;;;;10.30;9.30;;;4.10;99.90;;;;;;4964913;29;20211;-87
2021/01/20 01:35:45;;;;;;;10.00;8.37;;;4.00;99.90;;;;;;4960117;29;20204;-88
2021/01/20 01:38:16;;;;;;;7.37;6.57;;;3.90;99.90;;;;;;4953803;29;20212;-87
2021/01/20 01:40:52;;;;;;;4.20;3.50;;;3.90;99.90;;;;;;4961616;29;20231;-88
2021/01/20 01:43:28;;;;;;;4.00;3.50;;;3.80;99.90;;;;;;4963306;29;20547;-88
2021/01/20 01:46:05;;;;;;;4.60;3.00;;;3.80;99.90;;;;;;4945811;29;20202;-89
2021/01/20 01:48:38;;;;;;;6.63;3.60;;;3.80;99.90;;;;;;4949187;29;20204;-88
2021/01/20 01:51:38;;;;;;;6.30;3.23;;;3.70;99.90;;;;;;4961687;29;20239;-88
2021/01/20 01:54:15;;;;;;;5.30;3.50;;;3.60;99.90;;;;;;4964366;29;20287;-88
2021/01/20 01:56:47;;;;;;;7.07;3.30;;;3.60;99.90;;;;;;4964839;28;20203;-89
2021/01/20 01:59:26;;;;;;;5.33;3.80;;;3.50;99.90;;;;;;4967411;29;20215;-88
2021/01/20 02:01:58;;;;;;;4.53;3.03;;;3.50;99.90;;;;;;4964401;28;20227;-88
2021/01/20 02:04:33;;;;;;;5.83;3.43;;;3.50;99.90;;;;;;4969713;28;20199;-86
2021/01/20 02:07:05;;;;;;;5.57;4.13;;;3.50;99.90;;;;;;4971442;28;20285;-87
2021/01/20 02:09:37;;;;;;;7.37;4.03;;;3.50;99.90;;;;;;4970626;28;20192;-90
2021/01/20 02:12:35;;;;;;;6.10;3.70;;;3.50;99.90;;;;;;4973372;28;20290;-88
2021/01/20 02:15:13;;;;;;;3.90;3.33;;;3.40;99.90;;;;;;4967188;28;20204;-88
2021/01/20 02:17:48;;;;;;;4.43;3.37;;;3.40;99.90;;;;;;4968829;28;20199;-87
2021/01/20 02:20:53;;;;;;;6.27;3.43;;;3.40;99.90;;;;;;4971396;28;20549;-86
2021/01/20 02:23:28;;;;;;;4.80;2.97;;;3.40;99.90;;;;;;4974451;28;20195;-86
2021/01/20 02:26:18;;;;;;;3.80;2.70;;;3.40;99.90;;;;;;4955513;28;20255;-86
2021/01/20 02:29:25;;;;;;;4.07;2.70;;;3.40;99.90;;;;;;4975788;28;20216;-86
2021/01/20 02:31:58;;;;;;;6.13;4.20;;;3.40;99.90;;;;;;4963488;28;20210;-85
2021/01/20 02:34:30;;;;;;;4.83;3.83;;;3.40;99.90;;;;;;4977756;29;20215;-88
2021/01/20 02:37:03;;;;;;;6.80;6.00;;;3.30;99.90;;;;;;4972436;29;20204;-85
2021/01/20 02:39:34;;;;;;;8.90;7.03;;;3.30;99.90;;;;;;4962703;29;20192;-87
2021/01/20 02:42:05;;;;;;;8.70;6.50;;;3.30;99.90;;;;;;4968415;29;20203;-87
2021/01/20 02:44:38;;;;;;;7.03;5.57;;;3.20;99.90;;;;;;4969619;29;20267;-86
2021/01/20 02:47:12;;;;;;;6.50;5.33;;;3.20;99.90;;;;;;4975802;29;20219;-87
2021/01/20 02:49:54;;;;;;;8.27;5.73;;;3.20;99.90;;;;;;4973175;29;20207;-87
2021/01/20 02:52:36;;;;;;;7.43;5.27;;;3.10;99.90;;;;;;4974722;29;20263;-86
2021/01/20 02:55:11;;;;;;;6.00;5.30;;;3.10;99.90;;;;;;4961056;29;20212;-86
2021/01/20 02:57:45;;;;;;;6.83;5.97;;;3.20;99.90;;;;;;4973847;29;20203;-86
2021/01/20 03:00:18;;;;;;;6.07;5.17;;;3.20;99.90;;;;;;4967994;29;20234;-86
2021/01/20 03:02:53;;;;;;;7.30;5.00;;;3.20;99.90;;;;;;4968160;29;20208;-86
2021/01/20 03:05:24;;;;;;;6.10;4.23;;;3.30;99.90;;;;;;4969880;29;20208;-87
2021/01/20 03:07:55;;;;;;;6.53;4.20;;;3.40;99.90;;;;;;4971842;29;20203;-86
2021/01/20 03:10:27;;;;;;;6.57;3.27;;;3.40;99.90;;;;;;4971283;29;20279;-86
2021/01/20 03:12:58;;;;;;;6.10;3.67;;;3.50;99.90;;;;;;4971316;29;20208;-88
2021/01/20 03:15:32;;;;;;;5.87;3.37;;;3.50;99.90;;;;;;4950988;29;20252;-86
2021/01/20 03:18:05;;;;;;;6.27;3.77;;;3.50;99.90;;;;;;4970814;29;20203;-86
2021/01/20 03:20:37;;;;;;;3.80;3.00;;;3.50;99.90;;;;;;4952603;29;20223;-86
2021/01/20 03:23:11;;;;;;;3.47;2.53;;;3.60;99.90;;;;;;4971241;29;20226;-88
2021/01/20 03:25:45;;;;;;;4.33;2.87;;;3.70;99.90;;;;;;4969972;29;20200;-88
2021/01/20 03:28:17;;;;;;;3.20;2.70;;;3.70;99.90;;;;;;4949487;29;20207;-88
2021/01/20 03:30:47;;;;;;;3.57;2.80;;;3.70;99.90;;;;;;4952350;29;20203;-87
2021/01/20 03:33:19;;;;;;;4.53;2.80;;;3.80;99.90;;;;;;4970604;28;20211;-88
2021/01/20 03:35:50;;;;;;;3.27;2.97;;;3.90;99.90;;;;;;4951109;29;20272;-87
2021/01/20 03:38:21;;;;;;;3.73;3.00;;;3.90;99.90;;;;;;4947137;29;20272;-89
2021/01/20 03:40:52;;;;;;;5.77;3.77;;;4.00;99.90;;;;;;4967335;29;20228;-88
2021/01/20 03:43:22;;;;;;;6.23;4.30;;;4.00;99.90;;;;;;4967640;29;20211;-86
2021/01/20 03:45:53;;;;;;;5.43;4.07;;;4.10;99.90;;;;;;4946608;29;20231;-87
2021/01/20 03:48:26;;;;;;;4.27;3.77;;;4.10;99.90;;;;;;4934551;29;20224;-87
2021/01/20 03:50:57;;;;;;;6.37;4.23;;;4.20;99.90;;;;;;4962183;29;20219;-87
2021/01/20 03:53:28;;;;;;;8.47;4.43;;;4.20;99.90;;;;;;4966137;29;20207;-87
2021/01/20 03:55:59;;;;;;;7.37;4.63;;;4.20;99.90;;;;;;4961210;29;20239;-87
2021/01/20 03:58:30;;;;;;;5.73;3.70;;;4.20;99.90;;;;;;4966253;29;20208;-87
2021/01/20 04:01:07;;;;;;;7.17;4.30;;;4.20;99.90;;;;;;4964741;29;20223;-87
2021/01/20 04:03:50;;;;;;;7.97;4.47;;;4.20;99.90;;;;;;4961630;29;20238;-87
2021/01/20 04:06:21;;;;;;;5.97;4.20;;;4.20;99.90;;;;;;4967578;28;20302;-88
2021/01/20 04:08:53;;;;;;;5.13;4.37;;;4.20;99.90;;;;;;4966697;28;20208;-89
2021/01/20 04:11:24;;;;;;;7.60;4.00;;;4.20;99.90;;;;;;4961732;29;20208;-86
2021/01/20 04:13:56;;;;;;;4.83;3.47;;;4.20;99.90;;;;;;4952587;29;20234;-87
2021/01/20 04:16:26;;;;;;;5.40;3.47;;;4.20;99.90;;;;;;4963705;29;20231;-87
2021/01/20 04:18:58;;;;;;;4.20;2.90;;;4.20;99.90;;;;;;4964098;29;20218;-86
2021/01/20 04:21:30;;;;;;;6.20;3.47;;;4.30;99.90;;;;;;4948980;29;20228;-88
2021/01/20 04:24:10;;;;;;;5.20;3.67;;;4.30;99.90;;;;;;4973351;29;20270;-86
2021/01/20 04:26:49;;;;;;;4.27;2.77;;;4.30;99.90;;;;;;4967557;29;20311;-88
2021/01/20 04:29:20;;;;;;;5.40;3.30;;;4.30;99.90;;;;;;4959709;29;20567;-86
2021/01/20 04:31:50;;;;;;;3.57;2.93;;;4.30;99.90;;;;;;4955353;29;20275;-87
2021/01/20 04:34:23;;;;;;;3.70;2.93;;;4.40;99.90;;;;;;4957584;29;20208;-86
2021/01/20 04:36:54;;;;;;;4.73;2.80;;;4.40;99.90;;;;;;4941315;29;20204;-86
2021/01/20 04:39:25;;;;;;;5.00;2.87;;;4.40;99.90;;;;;;4940428;29;20303;-86
2021/01/20 04:41:55;;;;;;;4.53;2.77;;;4.40;99.90;;;;;;4957545;29;20243;-88
2021/01/20 04:44:26;;;;;;;5.13;2.70;;;4.50;99.90;;;;;;4960664;29;20204;-88
2021/01/20 04:47:00;;;;;;;4.97;2.93;;;4.50;99.90;;;;;;4973376;28;20197;-88
2021/01/20 04:49:36;;;;;;;5.20;3.60;;;4.50;99.90;;;;;;4976678;28;20291;-87
2021/01/20 04:52:11;;;;;;;4.67;3.30;;;4.50;99.90;;;;;;4971107;29;20326;-88
2021/01/20 04:54:44;;;;;;;4.47;3.47;;;4.50;99.90;;;;;;4962225;29;20200;-86
2021/01/20 04:57:16;;;;;;;4.27;3.10;;;4.60;99.90;;;;;;4961205;29;20219;-87
2021/01/20 04:59:47;;;;;;;3.57;3.00;;;4.50;99.90;;;;;;4968382;29;20215;-88
2021/01/20 05:02:18;;;;;;;4.17;3.40;;;4.50;99.90;;;;;;4951124;29;20232;-87
2021/01/20 05:04:53;;;;;;;5.07;3.90;;;4.60;99.90;;;;;;4957808;29;20302;-87
2021/01/20 05:07:25;;;;;;;6.97;4.07;;;4.60;99.90;;;;;;4965283;29;20203;-87
2021/01/20 05:09:56;;;;;;;5.90;3.67;;;4.60;99.90;;;;;;4959665;29;20219;-87
2021/01/20 05:12:41;;;;;;;4.93;3.60;;;4.60;99.90;;;;;;4941220;29;20203;-86
2021/01/20 05:15:17;;;;;;;7.70;3.70;;;4.60;99.90;;;;;;4953578;29;20285;-86
2021/01/20 05:18:01;;;;;;;4.13;3.20;;;4.60;99.90;;;;;;4958515;29;20211;-87
2021/01/20 05:20:34;;;;;;;6.37;4.37;;;4.60;99.90;;;;;;4956409;29;20323;-87
2021/01/20 05:23:06;;;;;;;4.50;3.83;;;4.70;99.90;;;;;;4941021;29;20237;-87
2021/01/20 05:25:38;;;;;;;8.60;4.57;;;4.70;99.90;;;;;;4950924;29;20285;-87
2021/01/20 05:28:20;;;;;;;6.33;4.70;;;4.70;99.90;;;;;;4946831;29;20282;-88
2021/01/20 05:30:52;;;;;;;5.33;4.30;;;4.70;99.90;;;;;;4953785;28;20218;-88
2021/01/20 05:33:25;;;;;;;5.47;3.90;;;4.60;99.90;;;;;;4949508;29;20204;-87
2021/01/20 05:36:07;;;;;;;5.67;3.77;;;4.60;99.90;;;;;;4953175;29;20208;-87
2021/01/20 05:38:41;;;;;;;6.33;4.40;;;4.60;99.90;;;;;;4948284;29;20278;-88
2021/01/20 05:41:19;;;;;;;5.90;3.50;;;4.80;99.90;;;;;;4951832;29;20239;-87
2021/01/20 05:43:51;;;;;;;7.77;3.83;;;4.90;99.90;;;;;;4951117;29;20211;-87
2021/01/20 05:46:35;;;;;;;5.93;3.70;;;4.80;99.90;;;;;;4957411;29;20210;-87
2021/01/20 05:49:06;;;;;;;4.77;3.43;;;4.70;99.90;;;;;;4940729;29;20204;-88
2021/01/20 05:51:43;;;;;;;5.80;3.93;;;4.60;99.90;;;;;;4956746;29;20231;-87
2021/01/20 05:54:14;;;;;;;5.10;3.47;;;4.70;99.90;;;;;;4941292;29;20239;-86
2021/01/20 05:56:45;;;;;;;3.93;3.30;;;4.60;99.90;;;;;;4965647;29;21443;-88
2021/01/20 05:59:27;;;;;;;4.43;3.13;;;4.60;99.90;;;;;;4964441;29;20207;-88
2021/01/20 06:01:58;;;;;;;4.70;3.57;;;4.60;99.90;;;;;;4964381;28;20223;-87
2021/01/20 06:04:30;;;;;;;4.43;3.13;;;4.60;99.90;;;;;;4959540;29;20583;-87
2021/01/20 06:07:05;;;;;;;4.77;3.00;;;4.60;99.90;;;;;;4943269;29;20696;-87
2021/01/20 06:09:37;;;;;;;6.07;3.80;;;4.50;99.90;;;;;;4969957;29;20195;-88
2021/01/20 06:12:08;;;;;;;5.63;3.30;;;4.60;99.90;;;;;;4958131;29;20200;-88
2021/01/20 06:14:40;;;;;;;5.03;3.70;;;4.60;99.90;;;;;;4958016;29;20276;-88
2021/01/20 06:17:16;;;;;;;6.67;4.13;;;4.60;99.90;;;;;;4945246;29;20607;-87
2021/01/20 06:19:48;;;;;;;5.33;3.80;;;4.50;99.90;;;;;;4961469;29;20670;-88
2021/01/20 06:22:21;;;;;;;5.40;3.90;;;4.50;99.90;;;;;;4956786;29;20273;-88
2021/01/20 06:24:54;;;;;;;6.67;4.50;;;4.50;99.90;;;;;;4929828;29;20283;-88
2021/01/20 06:27:28;;;;;;;6.30;4.03;;;4.40;99.90;;;;;;4960998;29;20246;-87
2021/01/20 06:30:04;;;;;;;7.77;4.57;;;4.40;99.90;;;;;;4960742;29;20215;-87
2021/01/20 06:32:37;;;;;;;7.07;5.20;;;4.40;99.90;;;;;;4961980;29;20230;-87
2021/01/20 06:35:09;;;;;;;5.53;3.77;;;4.20;99.90;;;;;;4941654;29;20307;-87
2021/01/20 06:37:44;;;;;;;5.80;4.07;;;4.20;99.90;;;;;;4959808;29;20200;-87
2021/01/20 06:40:39;;;;;;;6.50;4.30;;;4.20;99.90;;;;;;4960695;29;20974;-87
2021/01/20 06:43:35;;;;;;;9.87;4.67;;;4.20;99.90;;;;;;4938924;29;20227;-88
2021/01/20 06:46:27;;;;;;;6.93;3.80;;;4.20;99.90;;;;;;4958719;29;20633;-88
2021/01/20 06:49:11;;;;;;;7.67;4.23;;;4.10;99.90;;;;;;4955978;29;20212;-88
2021/01/20 06:51:43;;;;;;;7.50;3.87;;;4.20;99.90;;;;;;4953178;29;20224;-88
2021/01/20 06:54:16;;;;;;;5.70;3.87;;;4.10;99.90;;;;;;4958188;28;20214;-88
2021/01/20 06:56:55;;;;;;;5.30;4.03;;;4.10;99.90;;;;;;4960444;29;20234;-87
2021/01/20 06:59:27;;;;;;;6.70;3.70;;;4.00;99.90;;;;;;4960168;29;20303;-87
2021/01/20 07:02:15;;;;;;;5.53;3.43;;;4.10;99.90;;;;;;4960035;29;20227;-87
2021/01/20 07:05:08;;;;;;;4.27;3.30;;;3.90;99.90;;;;;;4962033;29;20202;-87
2021/01/20 07:07:56;;;;;;;5.70;3.67;;;3.90;99.90;;;;;;4969200;29;20208;-88
2021/01/20 07:10:28;;;;;;;3.67;3.20;;;3.80;99.90;;;;;;4972613;29;20199;-88
2021/01/20 07:13:32;;;;;;;5.53;3.03;;;3.70;99.90;;;;;;4974673;28;20220;-89
2021/01/20 07:16:05;;;;;;;5.13;3.50;;;3.60;99.90;;;;;;4904516;29;20193;-87
2021/01/20 07:18:38;;;;;;;5.43;3.70;;;3.50;99.90;;;;;;4950578;28;20340;-88
2021/01/20 07:21:12;;;;;;;5.27;3.40;;;3.50;99.90;;;;;;4958155;29;20246;-86
2021/01/20 07:24:07;;;;;;;5.90;3.40;;;3.40;99.90;;;;;;4961984;29;20207;-88
2021/01/20 07:26:43;;;;;;;5.97;3.50;;;3.40;99.90;;;;;;4960628;29;20268;-87
2021/01/20 07:29:29;;;;;;;5.20;3.70;;;3.40;99.90;;;;;;4964228;29;20207;-89
2021/01/20 07:32:38;;;;;;;4.53;3.27;;;3.30;99.90;;;;;;4950040;29;20255;-88
2021/01/20 07:35:19;;;;;;;3.93;3.20;;;3.30;99.90;;;;;;4931736;29;20204;-87
2021/01/20 07:38:03;;;;;;;5.40;3.50;;;3.20;99.90;;;;;;4958033;29;20223;-87
2021/01/20 07:40:35;;;;;;;4.90;3.23;;;3.20;99.90;;;;;;4962929;29;20216;-87
2021/01/20 07:43:08;;;;;;;3.97;2.90;;;3.10;99.90;;;;;;4959795;29;20234;-87
2021/01/20 07:45:41;;;;;;;3.77;3.10;;;3.10;99.90;;;;;;4966250;29;20208;-87
2021/01/20 07:48:12;;;;;;;2.70;2.30;;;3.10;99.90;;;;;;4960870;29;20207;-87
2021/01/20 07:50:45;;;;;;;4.30;2.43;;;3.00;99.90;;;;;;4954904;29;20211;-87
2021/01/20 07:53:18;;;;;;;3.23;2.17;;;3.00;99.90;;;;;;4955357;29;20203;-87
2021/01/20 07:55:54;;;;;;;3.47;2.67;;;2.90;99.90;;;;;;4958504;29;20451;-87
2021/01/20 07:58:31;;;;;;;3.70;2.50;;;2.80;99.90;;;;;;4959146;29;20299;-88
2021/01/20 08:01:02;;;;;;;2.23;2.00;;;2.80;99.90;;;;;;4957614;29;20246;-88
2021/01/20 08:03:34;;;;;;;4.30;3.13;;;2.80;99.90;;;;;;4943657;29;20204;-87
2021/01/20 08:06:08;;;;;;;4.23;2.97;;;2.90;99.90;;;;;;4959353;29;20208;-87
2021/01/20 08:08:51;;;;;;;5.03;2.87;;;2.80;99.90;;;;;;4959161;29;20211;-87
2021/01/20 08:11:23;;;;;;;3.43;2.93;;;2.80;99.90;;;;;;4960639;29;20287;-87
2021/01/20 08:13:56;;;;;;;4.40;2.67;;;2.90;99.90;;;;;;4954431;29;20254;-86
2021/01/20 08:16:29;;;;;;;3.10;2.13;;;2.90;99.90;;;;;;4952258;29;20204;-88
2021/01/20 08:19:00;;;;;;;2.97;2.33;;;2.90;99.90;;;;;;4954946;29;20215;-88
2021/01/20 08:21:31;;;;;;;5.50;3.40;;;2.90;99.90;;;;;;4950923;29;20703;-87
2021/01/20 08:24:05;;;;;;;3.80;2.60;;;2.90;99.90;;;;;;4949150;28;20678;-88
2021/01/20 08:26:36;;;;;;;4.13;2.80;;;2.90;99.90;;;;;;4952672;29;20203;-86
2021/01/20 08:29:10;;;;;;;2.80;1.93;;;2.90;99.90;;;;;;4943688;29;20252;-87
2021/01/20 08:31:41;;;;;;;3.50;1.83;;;3.00;99.90;;;;;;4950743;29;20215;-87
2021/01/20 08:34:20;;;;;;;4.97;2.40;;;3.10;99.90;;;;;;4933489;29;20208;-86
2021/01/20 08:37:00;;;;;;;6.67;2.23;;;3.20;99.90;;;;;;4951558;29;20223;-87
2021/01/20 08:39:32;;;;;;;6.03;3.67;;;3.30;99.90;;;;;;4948214;29;20211;-88
2021/01/20 08:42:28;;;;;;;10.40;6.27;;;3.30;99.90;;;;;;4941474;29;20282;-87
2021/01/20 08:45:12;;;;;;;14.23;7.03;;;3.30;99.90;;;;;;4942221;29;20204;-86
2021/01/20 08:47:51;;;;;;;11.67;6.50;;;3.40;99.90;;;;;;4952472;29;20211;-86
2021/01/20 08:50:33;;;;;;;7.27;3.63;;;3.50;99.90;;;;;;4950463;29;20275;-88
2021/01/20 08:53:05;;;;;;;5.37;2.47;;;3.50;99.90;;;;;;4944526;29;20559;-88
2021/01/20 08:55:38;;;;;;;6.23;2.97;;;3.60;99.90;;;;;;4950474;29;20207;-86
2021/01/20 08:58:32;;;;;;;3.57;1.93;;;3.60;99.90;;;;;;4964540;29;20220;-88
2021/01/20 09:01:07;;;;;;;2.60;1.83;;;3.60;99.90;;;;;;4941206;29;20224;-88
2021/01/20 09:03:39;;;;;;;3.47;1.93;;;3.60;99.90;;;;;;4955676;29;20656;-86
2021/01/20 09:06:17;;;;;;;2.33;1.60;;;3.60;99.90;;;;;;4952304;29;20208;-87
2021/01/20 09:08:47;;;;;;;2.97;1.80;;;3.70;99.90;;;;;;4952261;29;20212;-87
2021/01/20 09:11:19;;;;;;;2.37;1.90;;;3.70;99.90;;;;;;4922971;29;20204;-87
2021/01/20 09:13:50;;;;;;;3.77;1.80;;;3.70;99.90;;;;;;4956124;29;20218;-87
2021/01/20 09:16:28;;;;;;;3.10;1.83;;;3.70;99.90;;;;;;4955536;29;20251;-87
2021/01/20 09:18:59;;;;;;;2.03;1.60;;;3.80;99.90;;;;;;4948027;29;20211;-87
2021/01/20 09:21:30;;;;;;;2.37;1.80;;;3.80;99.90;;;;;;4964645;29;21427;-87
2021/01/20 09:24:01;;;;;;;2.63;1.93;;;3.90;99.90;;;;;;4964877;29;20316;-87
2021/01/20 09:26:32;;;;;;;2.47;1.90;;;3.80;99.90;;;;;;4946929;28;20279;-86
2021/01/20 09:29:06;;;;;;;1.83;1.47;;;3.90;99.90;;;;;;4949124;29;20299;-87
2021/01/20 09:31:38;;;;;;;2.57;1.73;;;3.90;99.90;;;;;;4951919;29;20638;-87
2021/01/20 09:34:10;;;;;;;3.33;1.60;;;3.90;99.90;;;;;;4943934;29;20219;-87
2021/01/20 09:39:26;;;;;;;2.13;1.70;;;3.90;99.90;;;;;;4951788;29;20201;-87
2021/01/20 09:41:57;;;;;;;2.33;1.63;;;3.90;99.90;;;;;;4947081;29;20589;-87
2021/01/20 09:44:28;;;;;;;2.40;1.60;;;3.90;99.90;;;;;;4949106;29;20216;-88
2021/01/20 09:47:02;;;;;;;2.23;1.43;;;3.90;99.90;;;;;;4960450;29;20230;-88
2021/01/20 09:49:34;;;;;;;2.80;2.00;;;3.90;99.90;;;;;;4954547;29;20239;-87
2021/01/20 09:52:05;;;;;;;2.70;1.70;;;3.90;99.90;;;;;;4948968;29;20228;-88
2021/01/20 09:54:37;;;;;;;2.60;2.00;;;4.00;99.90;;;;;;4950254;29;20200;-87
2021/01/20 09:57:07;;;;;;;2.40;2.00;;;3.90;99.90;;;;;;4945482;29;20657;-86
2021/01/20 09:59:38;;;;;;;2.70;1.93;;;4.00;99.90;;;;;;4950952;29;20200;-88
2021/01/20 10:02:10;;;;;;;2.87;1.90;;;3.90;99.90;;;;;;4950385;29;20315;-89
2021/01/20 10:04:42;;;;;;;3.07;1.70;;;3.90;99.90;;;;;;4952212;29;20231;-88
2021/01/20 10:07:13;;;;;;;2.87;2.27;;;3.90;99.90;;;;;;4936338;29;20259;-87
2021/01/20 10:09:44;;;;;;;2.17;1.80;;;3.90;99.90;;;;;;4949717;29;20219;-85
2021/01/20 10:12:15;;;;;;;4.13;2.20;;;3.90;99.90;;;;;;4948331;29;20279;-87
2021/01/20 10:14:45;;;;;;;3.90;2.10;;;3.90;99.90;;;;;;4936235;29;20208;-87
2021/01/20 10:17:18;;;;;;;2.87;2.40;;;3.90;99.90;;;;;;4952026;29;20204;-87
2021/01/20 10:19:49;;;;;;;2.93;1.77;;;3.90;99.90;;;;;;4952523;29;20254;-86
2021/01/20 10:22:19;;;;;;;3.27;1.90;;;3.90;99.90;;;;;;4956137;29;20263;-87
2021/01/20 10:24:51;;;;;;;2.70;1.97;;;3.90;99.90;;;;;;4933608;29;20215;-87
2021/01/20 10:27:21;;;;;;;2.73;2.17;;;3.90;99.90;;;;;;4955639;29;20652;-88
2021/01/20 10:29:52;;;;;;;2.73;2.07;;;3.80;99.90;;;;;;4948565;29;20286;-87
2021/01/20 10:32:23;;;;;;;2.20;2.00;;;3.80;99.90;;;;;;4935949;29;20222;-87
2021/01/20 10:34:55;;;;;;;3.87;2.30;;;3.80;99.90;;;;;;4959840;29;20276;-88
2021/01/20 10:37:26;;;;;;;3.33;2.50;;;3.70;99.90;;;;;;4953197;29;20295;-88
2021/01/20 10:40:01;;;;;;;3.57;2.60;;;3.70;99.90;;;;;;4937732;29;20215;-88
2021/01/20 10:42:31;;;;;;;3.83;2.90;;;3.60;99.90;;;;;;4957652;29;20235;-88
2021/01/20 10:45:02;;;;;;;4.00;3.13;;;3.50;99.90;;;;;;4930961;29;20255;-87
2021/01/20 10:47:35;;;;;;;3.90;3.13;;;3.50;99.90;;;;;;4946545;29;20207;-87
2021/01/20 10:50:06;;;;;;;5.03;3.57;;;3.50;99.90;;;;;;4943744;29;20284;-86
2021/01/20 10:52:37;;;;;;;4.20;3.50;;;3.50;99.90;;;;;;4948764;29;20284;-87
2021/01/20 10:55:09;;;;;;;5.00;2.83;;;3.50;99.90;;;;;;4946721;29;20212;-87
2021/01/20 10:57:39;;;;;;;5.57;3.60;;;3.50;99.90;;;;;;4955649;29;20206;-85
2021/01/20 11:00:11;;;;;;;5.80;3.37;;;3.50;99.90;;;;;;4956097;29;20234;-87
2021/01/20 11:02:44;;;;;;;4.30;3.40;;;3.50;99.90;;;;;;4951453;29;20231;-88
2021/01/20 11:05:16;;;;;;;4.73;3.13;;;3.50;99.90;;;;;;4959234;29;20218;-88
2021/01/20 11:07:47;;;;;;;4.07;3.30;;;3.50;99.90;;;;;;4937149;29;20204;-87
2021/01/20 11:10:18;;;;;;;4.63;3.07;;;3.50;99.90;;;;;;4944480;29;20972;-86
2021/01/20 11:12:51;;;;;;;3.30;2.90;;;3.60;99.90;;;;;;4955509;29;20212;-88
2021/01/20 11:15:22;;;;;;;5.00;3.43;;;3.60;99.90;;;;;;4945227;29;20217;-88
2021/01/20 11:17:54;;;;;;;4.93;3.30;;;3.60;99.90;;;;;;4958545;28;20207;-87
2021/01/20 11:20:25;;;;;;;4.20;3.20;;;3.60;99.90;;;;;;4948685;29;20196;-88
2021/01/20 11:22:55;;;;;;;4.30;3.10;;;3.60;99.90;;;;;;4944065;29;20228;-89
2021/01/20 11:25:35;;;;;;;5.90;3.50;;;3.60;99.90;;;;;;4955806;29;20203;-88
2021/01/20 11:28:06;;;;;;;4.43;3.40;;;3.60;99.90;;;;;;4947060;29;20555;-90
2021/01/20 11:30:36;;;;;;;3.77;3.20;;;3.60;99.90;;;;;;4958442;29;20208;-89
2021/01/20 11:33:09;;;;;;;3.53;2.80;;;3.60;99.90;;;;;;4960880;29;20697;-88
2021/01/20 11:35:39;;;;;;;4.23;2.87;;;3.60;99.90;;;;;;4957142;29;20602;-89
2021/01/20 11:38:11;;;;;;;3.97;2.87;;;3.60;99.90;;;;;;4960098;29;20262;-90
2021/01/20 11:40:41;;;;;;;3.17;2.57;;;3.60;99.90;;;;;;4958338;28;20215;-87
2021/01/20 11:43:12;;;;;;;4.67;2.90;;;3.60;99.90;;;;;;4974996;28;20212;-87
2021/01/20 11:45:43;;;;;;;3.03;2.50;;;3.60;99.90;;;;;;4951265;29;20291;-87
2021/01/20 11:48:14;;;;;;;4.03;2.77;;;3.60;99.90;;;;;;4952728;29;20216;-87
2021/01/20 11:50:45;;;;;;;3.40;2.30;;;3.70;99.90;;;;;;4950749;29;20228;-87
2021/01/20 11:53:20;;;;;;;3.13;2.43;;;3.60;99.90;;;;;;4956994;29;20226;-88
2021/01/20 11:55:53;;;;;;;3.30;2.80;;;3.60;99.90;;;;;;4959973;29;20220;-87
2021/01/20 11:58:23;;;;;;;3.07;2.63;;;3.60;99.90;;;;;;4959357;28;20274;-87
2021/01/20 12:00:53;;;;;;;5.00;2.93;;;3.60;99.90;;;;;;4958765;29;20207;-86
2021/01/20 12:03:26;;;;;;;3.43;2.53;;;3.60;99.90;;;;;;4943936;29;20271;-87
2021/01/20 12:05:57;;;;;;;3.07;2.40;;;3.60;99.90;;;;;;4958368;29;20262;-87
2021/01/20 12:08:27;;;;;;;3.10;2.40;;;3.50;99.90;;;;;;4926315;29;20215;-87
2021/01/20 12:10:58;;;;;;;3.60;2.43;;;3.40;99.90;;;;;;4948276;29;20238;-87
2021/01/20 12:13:29;;;;;;;4.30;3.00;;;3.40;99.90;;;;;;4958495;29;20270;-87
2021/01/20 12:16:03;;;;;;;3.77;2.70;;;3.30;99.90;;;;;;4943048;29;20211;-88
2021/01/20 12:18:35;;;;;;;3.20;2.17;;;3.20;99.90;;;;;;4959044;29;20207;-87
2021/01/20 12:21:06;;;;;;;3.73;2.60;;;3.00;99.90;;;;;;4958512;29;20207;-87
2021/01/20 12:23:53;;;;;;;3.20;2.60;;;2.90;99.90;;;;;;4959289;29;20211;-87
2021/01/20 12:26:46;;;;;;;4.23;2.67;;;2.90;99.90;;;;;;4959337;29;20307;-87
2021/01/20 12:29:26;;;;;;;3.03;2.20;;;2.80;99.90;;;;;;4931244;29;20220;-86
2021/01/20 12:32:01;;;;;;;4.13;2.67;;;2.70;99.90;;;;;;4935802;29;20298;-87
2021/01/20 12:34:34;;;;;;;3.70;2.40;;;2.80;99.90;;;;;;4939608;29;20215;-86
2021/01/20 12:37:32;;;;;;;4.27;2.63;;;2.80;99.90;;;;;;4939306;29;20208;-87
2021/01/20 12:40:02;;;;;;;3.90;2.10;;;2.70;99.90;;;;;;4932976;29;20291;-88
2021/01/20 12:42:33;;;;;;;3.53;2.23;;;2.80;99.90;;;;;;4938985;29;20617;-88
2021/01/20 12:45:04;;;;;;;3.23;1.93;;;2.70;99.90;;;;;;4941862;29;20208;-88
2021/01/20 12:47:34;;;;;;;4.57;2.57;;;2.70;99.90;;;;;;4957767;29;20258;-86
2021/01/20 12:50:08;;;;;;;4.03;2.43;;;2.60;99.90;;;;;;4957169;29;20207;-89
2021/01/20 12:52:38;;;;;;;3.63;2.43;;;2.60;99.90;;;;;;4957893;29;20211;-87
2021/01/20 12:55:10;;;;;;;3.60;2.37;;;2.50;99.90;;;;;;4944975;29;20223;-87
2021/01/20 12:57:41;;;;;;;3.37;2.40;;;2.40;99.90;;;;;;4955966;29;20373;-87
2021/01/20 13:00:13;;;;;;;4.40;2.33;;;2.40;99.90;;;;;;4939742;29;20656;-88
2021/01/20 13:02:43;;;;;;;3.57;2.20;;;2.40;99.90;;;;;;4957536;29;20406;-88
2021/01/20 13:05:15;;;;;;;3.37;2.17;;;2.30;99.90;;;;;;4960289;29;20203;-88
2021/01/20 13:07:45;;;;;;;3.17;2.17;;;2.30;99.90;;;;;;4963357;29;20211;-85
2021/01/20 13:10:15;;;;;;;2.80;2.20;;;2.20;99.90;;;;;;4956244;28;20241;-88
2021/01/20 13:12:45;;;;;;;3.60;2.10;;;2.20;99.90;;;;;;4956292;29;20247;-87
2021/01/20 13:15:17;;;;;;;4.23;2.03;;;2.20;99.90;;;;;;4957429;29;20270;-88
2021/01/20 13:17:48;;;;;;;2.50;1.87;;;2.20;99.90;;;;;;4954672;29;20302;-87
2021/01/20 13:20:20;;;;;;;2.30;2.10;;;2.10;99.90;;;;;;4938606;29;20669;-88
2021/01/20 13:22:51;;;;;;;2.17;1.97;;;2.20;99.90;;;;;;4957068;29;20302;-87
2021/01/20 13:25:23;;;;;;;2.77;1.90;;;2.20;99.90;;;;;;4952150;29;20215;-87
2021/01/20 13:27:54;;;;;;;3.83;2.63;;;2.20;99.90;;;;;;4945928;29;20242;-92
2021/01/20 13:30:26;;;;;;;4.90;2.10;;;2.20;99.90;;;;;;4957752;29;20241;-92
2021/01/20 13:32:56;;;;;;;2.73;2.10;;;2.20;99.90;;;;;;4937948;29;20211;-91
2021/01/20 13:35:29;;;;;;;7.70;2.37;;;2.20;99.90;;;;;;4942881;29;20216;-92
2021/01/20 13:37:59;;;;;;;2.43;1.80;;;2.20;99.90;;;;;;4957508;29;20218;-91